sensor_id;sensor_type;location;lat;lon;timestamp;P1;durP1;ratioP1;P2;durP2;ratioP2
77123;SDS011;66079;47.646;19.130;2023-01-01T00:00:47;103.40;;;45.67;;
77123;SDS011;66079;47.646;19.130;2023-01-01T00:03:50;110.18;;;47.80;;
77123;SDS011;66079;47.646;19.130;2023-01-01T00:06:54;108.50;;;49.33;;
77123;SDS011;66079;47.646;19.130;2023-01-01T00:09:57;115.80;;;50.10;;
77123;SDS011;66079;47.646;19.130;2023-01-01T00:13:18;101.37;;;50.83;;
77123;SDS011;66079;47.646;19.130;2023-01-01T00:16:20;114.20;;;50.60;;
77123;SDS011;66079;47.646;19.130;2023-01-01T00:19:23;98.55;;;49.08;;
77123;SDS011;66079;47.646;19.130;2023-01-01T00:22:25;103.45;;;47.30;;
77123;SDS011;66079;47.646;19.130;2023-01-01T00:25:47;101.70;;;45.27;;
77123;SDS011;66079;47.646;19.130;2023-01-01T00:28:50;104.93;;;43.53;;
77123;SDS011;66079;47.646;19.130;2023-01-01T00:31:52;101.47;;;47.58;;
77123;SDS011;66079;47.646;19.130;2023-01-01T00:34:55;97.40;;;47.97;;
77123;SDS011;66079;47.646;19.130;2023-01-01T00:37:57;117.97;;;53.10;;
77123;SDS011;66079;47.646;19.130;2023-01-01T00:41:00;117.20;;;57.70;;
77123;SDS011;66079;47.646;19.130;2023-01-01T00:44:02;128.77;;;61.28;;
77123;SDS011;66079;47.646;19.130;2023-01-01T00:47:05;120.00;;;52.55;;
77123;SDS011;66079;47.646;19.130;2023-01-01T00:50:08;113.18;;;48.95;;
77123;SDS011;66079;47.646;19.130;2023-01-01T00:53:11;118.17;;;47.23;;
77123;SDS011;66079;47.646;19.130;2023-01-01T00:56:13;121.68;;;49.05;;
77123;SDS011;66079;47.646;19.130;2023-01-01T00:59:15;126.50;;;53.95;;
77123;SDS011;66079;47.646;19.130;2023-01-01T01:02:18;112.63;;;50.42;;
77123;SDS011;66079;47.646;19.130;2023-01-01T01:05:21;125.47;;;49.37;;
77123;SDS011;66079;47.646;19.130;2023-01-01T01:08:24;103.97;;;44.97;;
77123;SDS011;66079;47.646;19.130;2023-01-01T01:11:32;105.68;;;42.90;;
77123;SDS011;66079;47.646;19.130;2023-01-01T01:14:35;91.25;;;42.85;;
77123;SDS011;66079;47.646;19.130;2023-01-01T01:17:37;98.17;;;42.93;;
77123;SDS011;66079;47.646;19.130;2023-01-01T01:20:40;109.97;;;44.57;;
77123;SDS011;66079;47.646;19.130;2023-01-01T01:23:51;102.75;;;44.03;;
77123;SDS011;66079;47.646;19.130;2023-01-01T01:26:55;94.20;;;43.78;;
77123;SDS011;66079;47.646;19.130;2023-01-01T01:29:57;95.43;;;44.13;;
77123;SDS011;66079;47.646;19.130;2023-01-01T01:33:00;101.43;;;44.10;;
77123;SDS011;66079;47.646;19.130;2023-01-01T01:36:03;102.43;;;46.55;;
77123;SDS011;66079;47.646;19.130;2023-01-01T01:39:08;98.78;;;45.50;;
77123;SDS011;66079;47.646;19.130;2023-01-01T01:42:16;122.72;;;48.20;;
77123;SDS011;66079;47.646;19.130;2023-01-01T01:45:19;103.67;;;48.50;;
77123;SDS011;66079;47.646;19.130;2023-01-01T01:48:22;119.17;;;48.83;;
77123;SDS011;66079;47.646;19.130;2023-01-01T01:51:31;111.63;;;48.55;;
77123;SDS011;66079;47.646;19.130;2023-01-01T01:54:37;98.88;;;45.58;;
77123;SDS011;66079;47.646;19.130;2023-01-01T01:57:42;108.93;;;48.17;;
77123;SDS011;66079;47.646;19.130;2023-01-01T02:00:44;105.73;;;47.43;;
77123;SDS011;66079;47.646;19.130;2023-01-01T02:06:55;104.40;;;46.47;;
77123;SDS011;66079;47.646;19.130;2023-01-01T02:09:59;105.22;;;47.03;;
77123;SDS011;66079;47.646;19.130;2023-01-01T02:13:02;95.97;;;45.63;;
77123;SDS011;66079;47.646;19.130;2023-01-01T02:30:16;85.23;;;43.37;;
77123;SDS011;66079;47.646;19.130;2023-01-01T02:33:21;86.97;;;43.63;;
77123;SDS011;66079;47.646;19.130;2023-01-01T02:36:26;84.55;;;43.75;;
77123;SDS011;66079;47.646;19.130;2023-01-01T02:39:34;84.32;;;42.10;;
77123;SDS011;66079;47.646;19.130;2023-01-01T02:42:40;82.07;;;41.40;;
77123;SDS011;66079;47.646;19.130;2023-01-01T02:45:43;79.60;;;40.10;;
77123;SDS011;66079;47.646;19.130;2023-01-01T02:48:48;72.68;;;38.25;;
77123;SDS011;66079;47.646;19.130;2023-01-01T02:56:15;65.87;;;33.57;;
77123;SDS011;66079;47.646;19.130;2023-01-01T03:06:28;65.32;;;33.60;;
77123;SDS011;66079;47.646;19.130;2023-01-01T03:09:44;68.43;;;33.80;;
77123;SDS011;66079;47.646;19.130;2023-01-01T03:12:56;80.07;;;34.10;;
77123;SDS011;66079;47.646;19.130;2023-01-01T03:19:31;79.55;;;35.55;;
77123;SDS011;66079;47.646;19.130;2023-01-01T03:22:38;82.50;;;34.72;;
77123;SDS011;66079;47.646;19.130;2023-01-01T03:25:44;81.33;;;34.33;;
77123;SDS011;66079;47.646;19.130;2023-01-01T03:28:51;63.83;;;29.67;;
77123;SDS011;66079;47.646;19.130;2023-01-01T03:31:57;57.92;;;28.35;;
77123;SDS011;66079;47.646;19.130;2023-01-01T03:35:02;64.40;;;27.58;;
77123;SDS011;66079;47.646;19.130;2023-01-01T03:38:08;53.67;;;25.20;;
77123;SDS011;66079;47.646;19.130;2023-01-01T03:41:20;49.97;;;23.92;;
77123;SDS011;66079;47.646;19.130;2023-01-01T03:44:29;54.30;;;24.50;;
77123;SDS011;66079;47.646;19.130;2023-01-01T03:47:35;48.63;;;24.65;;
77123;SDS011;66079;47.646;19.130;2023-01-01T03:50:42;49.58;;;23.70;;
77123;SDS011;66079;47.646;19.130;2023-01-01T03:53:51;43.20;;;22.80;;
77123;SDS011;66079;47.646;19.130;2023-01-01T03:57:16;43.47;;;22.80;;
77123;SDS011;66079;47.646;19.130;2023-01-01T04:00:45;44.28;;;22.00;;
77123;SDS011;66079;47.646;19.130;2023-01-01T04:03:52;50.78;;;23.27;;
77123;SDS011;66079;47.646;19.130;2023-01-01T04:06:55;68.53;;;24.23;;
77123;SDS011;66079;47.646;19.130;2023-01-01T04:10:10;46.67;;;22.33;;
77123;SDS011;66079;47.646;19.130;2023-01-01T04:13:18;65.45;;;24.52;;
77123;SDS011;66079;47.646;19.130;2023-01-01T04:16:21;71.63;;;27.25;;
77123;SDS011;66079;47.646;19.130;2023-01-01T04:19:24;79.18;;;24.85;;
77123;SDS011;66079;47.646;19.130;2023-01-01T04:22:27;51.37;;;23.83;;
77123;SDS011;66079;47.646;19.130;2023-01-01T04:25:30;68.68;;;24.80;;
77123;SDS011;66079;47.646;19.130;2023-01-01T04:28:33;61.03;;;24.30;;
77123;SDS011;66079;47.646;19.130;2023-01-01T04:31:35;69.10;;;24.83;;
77123;SDS011;66079;47.646;19.130;2023-01-01T04:34:38;77.70;;;25.00;;
77123;SDS011;66079;47.646;19.130;2023-01-01T04:37:41;77.17;;;24.90;;
77123;SDS011;66079;47.646;19.130;2023-01-01T04:40:45;71.97;;;26.20;;
77123;SDS011;66079;47.646;19.130;2023-01-01T04:43:48;73.28;;;26.48;;
77123;SDS011;66079;47.646;19.130;2023-01-01T04:46:51;65.78;;;26.33;;
77123;SDS011;66079;47.646;19.130;2023-01-01T04:50:01;69.27;;;25.93;;
77123;SDS011;66079;47.646;19.130;2023-01-01T04:53:03;67.07;;;26.23;;
77123;SDS011;66079;47.646;19.130;2023-01-01T04:56:24;68.68;;;25.33;;
77123;SDS011;66079;47.646;19.130;2023-01-01T04:59:28;64.50;;;25.98;;
77123;SDS011;66079;47.646;19.130;2023-01-01T05:02:31;67.83;;;26.13;;
77123;SDS011;66079;47.646;19.130;2023-01-01T05:05:34;67.90;;;25.93;;
77123;SDS011;66079;47.646;19.130;2023-01-01T05:08:38;63.13;;;24.30;;
77123;SDS011;66079;47.646;19.130;2023-01-01T05:11:43;70.82;;;25.13;;
77123;SDS011;66079;47.646;19.130;2023-01-01T05:14:46;63.53;;;26.27;;
77123;SDS011;66079;47.646;19.130;2023-01-01T05:17:48;49.57;;;25.50;;
77123;SDS011;66079;47.646;19.130;2023-01-01T05:20:51;44.33;;;23.93;;
77123;SDS011;66079;47.646;19.130;2023-01-01T05:23:54;47.80;;;25.65;;
77123;SDS011;66079;47.646;19.130;2023-01-01T05:26:58;40.15;;;23.67;;
77123;SDS011;66079;47.646;19.130;2023-01-01T05:30:00;39.17;;;23.10;;
77123;SDS011;66079;47.646;19.130;2023-01-01T05:33:04;43.60;;;23.93;;
77123;SDS011;66079;47.646;19.130;2023-01-01T05:36:07;43.00;;;24.05;;
77123;SDS011;66079;47.646;19.130;2023-01-01T05:39:12;42.50;;;23.50;;
77123;SDS011;66079;47.646;19.130;2023-01-01T05:42:15;45.05;;;23.77;;
77123;SDS011;66079;47.646;19.130;2023-01-01T05:45:19;43.83;;;23.43;;
77123;SDS011;66079;47.646;19.130;2023-01-01T05:48:21;49.38;;;23.38;;
77123;SDS011;66079;47.646;19.130;2023-01-01T05:51:26;41.78;;;23.27;;
77123;SDS011;66079;47.646;19.130;2023-01-01T05:54:30;51.22;;;23.35;;
77123;SDS011;66079;47.646;19.130;2023-01-01T05:57:33;50.03;;;22.47;;
77123;SDS011;66079;47.646;19.130;2023-01-01T06:00:37;49.30;;;24.48;;
77123;SDS011;66079;47.646;19.130;2023-01-01T06:03:40;45.75;;;23.38;;
77123;SDS011;66079;47.646;19.130;2023-01-01T06:06:43;49.05;;;23.05;;
77123;SDS011;66079;47.646;19.130;2023-01-01T06:09:46;37.67;;;22.87;;
77123;SDS011;66079;47.646;19.130;2023-01-01T06:12:48;51.07;;;24.83;;
77123;SDS011;66079;47.646;19.130;2023-01-01T06:15:54;39.33;;;21.55;;
77123;SDS011;66079;47.646;19.130;2023-01-01T06:18:59;35.67;;;22.17;;
77123;SDS011;66079;47.646;19.130;2023-01-01T06:22:02;36.65;;;22.27;;
77123;SDS011;66079;47.646;19.130;2023-01-01T06:25:04;37.33;;;22.00;;
77123;SDS011;66079;47.646;19.130;2023-01-01T06:28:07;35.65;;;21.50;;
77123;SDS011;66079;47.646;19.130;2023-01-01T06:31:11;40.85;;;21.92;;
77123;SDS011;66079;47.646;19.130;2023-01-01T06:34:15;39.87;;;22.83;;
77123;SDS011;66079;47.646;19.130;2023-01-01T06:37:17;39.67;;;22.20;;
77123;SDS011;66079;47.646;19.130;2023-01-01T06:40:21;38.72;;;22.42;;
77123;SDS011;66079;47.646;19.130;2023-01-01T06:43:24;39.28;;;22.48;;
77123;SDS011;66079;47.646;19.130;2023-01-01T06:46:30;45.78;;;21.92;;
77123;SDS011;66079;47.646;19.130;2023-01-01T06:49:34;45.20;;;22.10;;
77123;SDS011;66079;47.646;19.130;2023-01-01T06:52:37;41.03;;;22.80;;
77123;SDS011;66079;47.646;19.130;2023-01-01T06:55:40;41.15;;;21.65;;
77123;SDS011;66079;47.646;19.130;2023-01-01T06:58:58;45.72;;;21.83;;
77123;SDS011;66079;47.646;19.130;2023-01-01T07:02:00;44.40;;;21.90;;
77123;SDS011;66079;47.646;19.130;2023-01-01T07:05:03;48.05;;;21.33;;
77123;SDS011;66079;47.646;19.130;2023-01-01T07:08:06;48.63;;;21.88;;
77123;SDS011;66079;47.646;19.130;2023-01-01T07:11:08;45.25;;;21.95;;
77123;SDS011;66079;47.646;19.130;2023-01-01T07:14:11;41.60;;;22.40;;
77123;SDS011;66079;47.646;19.130;2023-01-01T07:17:13;46.73;;;23.53;;
77123;SDS011;66079;47.646;19.130;2023-01-01T07:20:16;47.55;;;24.45;;
77123;SDS011;66079;47.646;19.130;2023-01-01T07:23:18;54.45;;;25.40;;
77123;SDS011;66079;47.646;19.130;2023-01-01T07:26:22;45.17;;;23.48;;
77123;SDS011;66079;47.646;19.130;2023-01-01T07:29:27;41.47;;;21.20;;
77123;SDS011;66079;47.646;19.130;2023-01-01T07:32:29;42.90;;;21.43;;
77123;SDS011;66079;47.646;19.130;2023-01-01T07:35:32;44.53;;;22.27;;
77123;SDS011;66079;47.646;19.130;2023-01-01T07:38:35;44.13;;;22.80;;
77123;SDS011;66079;47.646;19.130;2023-01-01T07:41:37;51.90;;;24.63;;
77123;SDS011;66079;47.646;19.130;2023-01-01T07:44:40;50.47;;;27.30;;
77123;SDS011;66079;47.646;19.130;2023-01-01T07:47:43;60.70;;;28.67;;
77123;SDS011;66079;47.646;19.130;2023-01-01T07:50:52;54.40;;;28.98;;
77123;SDS011;66079;47.646;19.130;2023-01-01T07:53:54;49.85;;;25.38;;
77123;SDS011;66079;47.646;19.130;2023-01-01T07:57:05;55.57;;;26.43;;
77123;SDS011;66079;47.646;19.130;2023-01-01T08:00:11;51.80;;;25.55;;
77123;SDS011;66079;47.646;19.130;2023-01-01T08:03:17;59.55;;;26.73;;
77123;SDS011;66079;47.646;19.130;2023-01-01T08:06:20;47.42;;;25.95;;
77123;SDS011;66079;47.646;19.130;2023-01-01T08:09:24;51.03;;;23.20;;
77123;SDS011;66079;47.646;19.130;2023-01-01T08:12:26;47.53;;;23.17;;
77123;SDS011;66079;47.646;19.130;2023-01-01T08:15:29;48.50;;;22.02;;
77123;SDS011;66079;47.646;19.130;2023-01-01T08:18:32;49.92;;;22.52;;
77123;SDS011;66079;47.646;19.130;2023-01-01T08:21:34;39.47;;;21.60;;
77123;SDS011;66079;47.646;19.130;2023-01-01T08:24:36;30.97;;;19.43;;
77123;SDS011;66079;47.646;19.130;2023-01-01T08:27:39;34.30;;;20.77;;
77123;SDS011;66079;47.646;19.130;2023-01-01T08:30:42;30.45;;;20.35;;
77123;SDS011;66079;47.646;19.130;2023-01-01T08:33:46;31.10;;;19.52;;
77123;SDS011;66079;47.646;19.130;2023-01-01T08:36:48;27.90;;;18.13;;
77123;SDS011;66079;47.646;19.130;2023-01-01T08:39:51;29.13;;;18.57;;
77123;SDS011;66079;47.646;19.130;2023-01-01T08:42:54;26.33;;;18.33;;
77123;SDS011;66079;47.646;19.130;2023-01-01T08:45:57;24.90;;;17.75;;
77123;SDS011;66079;47.646;19.130;2023-01-01T08:48:59;23.80;;;16.88;;
77123;SDS011;66079;47.646;19.130;2023-01-01T08:52:04;20.42;;;15.80;;
77123;SDS011;66079;47.646;19.130;2023-01-01T08:55:06;22.17;;;16.13;;
77123;SDS011;66079;47.646;19.130;2023-01-01T08:58:10;23.00;;;16.42;;
77123;SDS011;66079;47.646;19.130;2023-01-01T09:01:12;23.20;;;16.05;;
77123;SDS011;66079;47.646;19.130;2023-01-01T09:04:15;22.70;;;16.08;;
77123;SDS011;66079;47.646;19.130;2023-01-01T09:07:18;23.52;;;16.08;;
77123;SDS011;66079;47.646;19.130;2023-01-01T09:10:20;21.83;;;15.53;;
77123;SDS011;66079;47.646;19.130;2023-01-01T09:13:23;21.55;;;15.70;;
77123;SDS011;66079;47.646;19.130;2023-01-01T09:16:25;22.38;;;15.50;;
77123;SDS011;66079;47.646;19.130;2023-01-01T09:19:28;21.42;;;15.23;;
77123;SDS011;66079;47.646;19.130;2023-01-01T09:22:32;22.67;;;15.57;;
77123;SDS011;66079;47.646;19.130;2023-01-01T09:25:35;23.10;;;15.80;;
77123;SDS011;66079;47.646;19.130;2023-01-01T09:28:37;22.10;;;16.33;;
77123;SDS011;66079;47.646;19.130;2023-01-01T09:31:40;20.75;;;15.18;;
77123;SDS011;66079;47.646;19.130;2023-01-01T09:34:42;21.08;;;15.82;;
77123;SDS011;66079;47.646;19.130;2023-01-01T09:37:53;21.95;;;16.30;;
77123;SDS011;66079;47.646;19.130;2023-01-01T09:47:38;21.00;;;15.20;;
77123;SDS011;66079;47.646;19.130;2023-01-01T09:50:44;21.77;;;15.90;;
77123;SDS011;66079;47.646;19.130;2023-01-01T09:53:52;22.85;;;15.52;;
77123;SDS011;66079;47.646;19.130;2023-01-01T09:57:03;21.93;;;15.27;;
77123;SDS011;66079;47.646;19.130;2023-01-01T10:00:15;20.67;;;14.43;;
77123;SDS011;66079;47.646;19.130;2023-01-01T10:03:28;21.30;;;15.35;;
77123;SDS011;66079;47.646;19.130;2023-01-01T10:06:47;23.98;;;15.05;;
77123;SDS011;66079;47.646;19.130;2023-01-01T10:13:41;21.83;;;14.93;;
77123;SDS011;66079;47.646;19.130;2023-01-01T10:16:45;21.88;;;15.73;;
77123;SDS011;66079;47.646;19.130;2023-01-01T10:19:56;21.20;;;14.70;;
77123;SDS011;66079;47.646;19.130;2023-01-01T10:23:25;20.50;;;14.77;;
77123;SDS011;66079;47.646;19.130;2023-01-01T10:26:32;22.17;;;15.60;;
77123;SDS011;66079;47.646;19.130;2023-01-01T10:29:39;21.40;;;14.93;;
77123;SDS011;66079;47.646;19.130;2023-01-01T10:32:46;21.77;;;15.25;;
77123;SDS011;66079;47.646;19.130;2023-01-01T10:35:51;21.63;;;14.30;;
77123;SDS011;66079;47.646;19.130;2023-01-01T10:38:58;20.52;;;14.27;;
77123;SDS011;66079;47.646;19.130;2023-01-01T10:42:00;19.92;;;13.88;;
77123;SDS011;66079;47.646;19.130;2023-01-01T10:45:04;18.40;;;13.07;;
77123;SDS011;66079;47.646;19.130;2023-01-01T10:51:29;16.60;;;12.02;;
77123;SDS011;66079;47.646;19.130;2023-01-01T10:57:37;15.85;;;11.50;;
77123;SDS011;66079;47.646;19.130;2023-01-01T11:00:43;16.40;;;12.07;;
77123;SDS011;66079;47.646;19.130;2023-01-01T11:07:05;16.08;;;12.00;;
77123;SDS011;66079;47.646;19.130;2023-01-01T11:10:26;15.77;;;11.27;;
77123;SDS011;66079;47.646;19.130;2023-01-01T11:13:32;15.27;;;11.23;;
77123;SDS011;66079;47.646;19.130;2023-01-01T11:16:37;15.00;;;11.23;;
77123;SDS011;66079;47.646;19.130;2023-01-01T11:19:41;16.38;;;11.70;;
77123;SDS011;66079;47.646;19.130;2023-01-01T11:22:52;15.55;;;11.35;;
77123;SDS011;66079;47.646;19.130;2023-01-01T11:25:56;16.52;;;11.68;;
77123;SDS011;66079;47.646;19.130;2023-01-01T11:32:20;13.63;;;10.67;;
77123;SDS011;66079;47.646;19.130;2023-01-01T11:35:26;17.02;;;11.45;;
77123;SDS011;66079;47.646;19.130;2023-01-01T11:38:31;18.10;;;12.45;;
77123;SDS011;66079;47.646;19.130;2023-01-01T11:41:44;16.13;;;11.93;;
77123;SDS011;66079;47.646;19.130;2023-01-01T11:44:59;19.55;;;12.27;;
77123;SDS011;66079;47.646;19.130;2023-01-01T11:48:15;16.27;;;11.93;;
77123;SDS011;66079;47.646;19.130;2023-01-01T11:51:29;17.38;;;11.90;;
77123;SDS011;66079;47.646;19.130;2023-01-01T11:54:33;19.23;;;12.93;;
77123;SDS011;66079;47.646;19.130;2023-01-01T11:57:40;20.58;;;12.77;;
77123;SDS011;66079;47.646;19.130;2023-01-01T12:00:52;22.25;;;12.93;;
77123;SDS011;66079;47.646;19.130;2023-01-01T12:04:00;19.90;;;12.37;;
77123;SDS011;66079;47.646;19.130;2023-01-01T12:07:18;18.80;;;12.38;;
77123;SDS011;66079;47.646;19.130;2023-01-01T12:10:26;18.70;;;13.02;;
77123;SDS011;66079;47.646;19.130;2023-01-01T12:13:36;20.08;;;13.50;;
77123;SDS011;66079;47.646;19.130;2023-01-01T12:17:03;22.15;;;13.43;;
77123;SDS011;66079;47.646;19.130;2023-01-01T12:20:29;24.67;;;14.93;;
77123;SDS011;66079;47.646;19.130;2023-01-01T12:23:46;21.45;;;14.27;;
77123;SDS011;66079;47.646;19.130;2023-01-01T12:30:23;19.35;;;12.77;;
77123;SDS011;66079;47.646;19.130;2023-01-01T12:40:35;18.23;;;12.30;;
77123;SDS011;66079;47.646;19.130;2023-01-01T12:47:05;20.70;;;12.82;;
77123;SDS011;66079;47.646;19.130;2023-01-01T12:53:45;21.20;;;12.90;;
77123;SDS011;66079;47.646;19.130;2023-01-01T12:57:29;18.30;;;12.30;;
77123;SDS011;66079;47.646;19.130;2023-01-01T13:00:36;20.20;;;12.20;;
77123;SDS011;66079;47.646;19.130;2023-01-01T13:03:46;23.05;;;13.32;;
77123;SDS011;66079;47.646;19.130;2023-01-01T13:06:59;20.42;;;13.05;;
77123;SDS011;66079;47.646;19.130;2023-01-01T13:10:08;20.67;;;13.20;;
77123;SDS011;66079;47.646;19.130;2023-01-01T13:13:23;21.98;;;13.50;;
77123;SDS011;66079;47.646;19.130;2023-01-01T13:16:36;24.08;;;14.90;;
77123;SDS011;66079;47.646;19.130;2023-01-01T13:19:42;22.98;;;14.40;;
77123;SDS011;66079;47.646;19.130;2023-01-01T13:22:45;25.90;;;14.55;;
77123;SDS011;66079;47.646;19.130;2023-01-01T13:25:49;22.97;;;13.97;;
77123;SDS011;66079;47.646;19.130;2023-01-01T13:29:24;25.10;;;15.00;;
77123;SDS011;66079;47.646;19.130;2023-01-01T13:32:27;23.08;;;14.45;;
77123;SDS011;66079;47.646;19.130;2023-01-01T13:46:05;22.30;;;13.15;;
77123;SDS011;66079;47.646;19.130;2023-01-01T13:59:04;23.60;;;13.70;;
77123;SDS011;66079;47.646;19.130;2023-01-01T14:02:25;23.73;;;14.02;;
77123;SDS011;66079;47.646;19.130;2023-01-01T14:05:33;21.23;;;13.68;;
77123;SDS011;66079;47.646;19.130;2023-01-01T14:08:38;22.58;;;13.15;;
77123;SDS011;66079;47.646;19.130;2023-01-01T14:11:41;22.67;;;13.35;;
77123;SDS011;66079;47.646;19.130;2023-01-01T14:14:44;23.70;;;13.87;;
77123;SDS011;66079;47.646;19.130;2023-01-01T14:17:47;25.48;;;14.77;;
77123;SDS011;66079;47.646;19.130;2023-01-01T14:20:51;25.08;;;15.18;;
77123;SDS011;66079;47.646;19.130;2023-01-01T14:23:58;26.25;;;15.40;;
77123;SDS011;66079;47.646;19.130;2023-01-01T14:27:03;24.15;;;14.95;;
77123;SDS011;66079;47.646;19.130;2023-01-01T14:30:13;26.90;;;15.70;;
77123;SDS011;66079;47.646;19.130;2023-01-01T14:33:27;23.88;;;14.48;;
77123;SDS011;66079;47.646;19.130;2023-01-01T14:36:31;26.70;;;16.10;;
77123;SDS011;66079;47.646;19.130;2023-01-01T14:39:34;26.73;;;15.43;;
77123;SDS011;66079;47.646;19.130;2023-01-01T14:42:38;25.08;;;14.57;;
77123;SDS011;66079;47.646;19.130;2023-01-01T14:45:41;24.20;;;15.53;;
77123;SDS011;66079;47.646;19.130;2023-01-01T14:48:45;24.30;;;15.65;;
77123;SDS011;66079;47.646;19.130;2023-01-01T14:51:55;25.35;;;15.52;;
77123;SDS011;66079;47.646;19.130;2023-01-01T14:55:02;25.02;;;15.15;;
77123;SDS011;66079;47.646;19.130;2023-01-01T14:58:08;23.08;;;15.15;;
77123;SDS011;66079;47.646;19.130;2023-01-01T15:01:21;29.37;;;16.50;;
77123;SDS011;66079;47.646;19.130;2023-01-01T15:04:26;28.13;;;16.35;;
77123;SDS011;66079;47.646;19.130;2023-01-01T15:07:29;27.52;;;16.42;;
77123;SDS011;66079;47.646;19.130;2023-01-01T15:10:36;27.48;;;15.77;;
77123;SDS011;66079;47.646;19.130;2023-01-01T15:13:39;27.48;;;15.13;;
77123;SDS011;66079;47.646;19.130;2023-01-01T15:16:42;31.23;;;18.50;;
77123;SDS011;66079;47.646;19.130;2023-01-01T15:19:45;33.20;;;19.88;;
77123;SDS011;66079;47.646;19.130;2023-01-01T15:23:01;35.15;;;20.08;;
77123;SDS011;66079;47.646;19.130;2023-01-01T15:26:13;36.70;;;20.23;;
77123;SDS011;66079;47.646;19.130;2023-01-01T15:29:47;38.15;;;21.48;;
77123;SDS011;66079;47.646;19.130;2023-01-01T15:32:50;36.50;;;21.10;;
77123;SDS011;66079;47.646;19.130;2023-01-01T15:35:53;34.78;;;20.92;;
77123;SDS011;66079;47.646;19.130;2023-01-01T15:39:01;35.85;;;20.30;;
77123;SDS011;66079;47.646;19.130;2023-01-01T15:42:04;41.10;;;21.52;;
77123;SDS011;66079;47.646;19.130;2023-01-01T15:45:34;39.78;;;22.52;;
77123;SDS011;66079;47.646;19.130;2023-01-01T15:48:48;35.03;;;20.00;;
77123;SDS011;66079;47.646;19.130;2023-01-01T15:51:53;35.90;;;20.48;;
77123;SDS011;66079;47.646;19.130;2023-01-01T15:54:57;36.00;;;20.85;;
77123;SDS011;66079;47.646;19.130;2023-01-01T15:58:00;35.35;;;20.95;;
77123;SDS011;66079;47.646;19.130;2023-01-01T16:01:07;38.50;;;21.40;;
77123;SDS011;66079;47.646;19.130;2023-01-01T16:07:16;41.10;;;22.83;;
77123;SDS011;66079;47.646;19.130;2023-01-01T16:10:22;45.55;;;25.40;;
77123;SDS011;66079;47.646;19.130;2023-01-01T16:13:24;43.33;;;23.52;;
77123;SDS011;66079;47.646;19.130;2023-01-01T16:16:27;45.78;;;23.42;;
77123;SDS011;66079;47.646;19.130;2023-01-01T16:19:31;42.47;;;23.33;;
77123;SDS011;66079;47.646;19.130;2023-01-01T16:22:35;41.25;;;22.60;;
77123;SDS011;66079;47.646;19.130;2023-01-01T16:25:38;40.72;;;23.63;;
77123;SDS011;66079;47.646;19.130;2023-01-01T16:28:40;41.55;;;23.73;;
77123;SDS011;66079;47.646;19.130;2023-01-01T16:31:43;41.08;;;23.88;;
77123;SDS011;66079;47.646;19.130;2023-01-01T16:34:48;38.93;;;23.03;;
77123;SDS011;66079;47.646;19.130;2023-01-01T16:37:50;40.33;;;22.83;;
77123;SDS011;66079;47.646;19.130;2023-01-01T16:40:53;35.65;;;21.65;;
77123;SDS011;66079;47.646;19.130;2023-01-01T16:43:56;36.20;;;20.40;;
77123;SDS011;66079;47.646;19.130;2023-01-01T16:46:59;32.45;;;19.90;;
77123;SDS011;66079;47.646;19.130;2023-01-01T16:50:02;33.00;;;18.63;;
77123;SDS011;66079;47.646;19.130;2023-01-01T16:53:04;31.98;;;18.52;;
77123;SDS011;66079;47.646;19.130;2023-01-01T16:56:07;29.02;;;17.63;;
77123;SDS011;66079;47.646;19.130;2023-01-01T16:59:12;31.92;;;17.02;;
77123;SDS011;66079;47.646;19.130;2023-01-01T17:02:16;30.20;;;17.55;;
77123;SDS011;66079;47.646;19.130;2023-01-01T17:05:19;32.57;;;18.73;;
77123;SDS011;66079;47.646;19.130;2023-01-01T17:08:21;29.42;;;17.38;;
77123;SDS011;66079;47.646;19.130;2023-01-01T17:11:25;30.42;;;17.30;;
77123;SDS011;66079;47.646;19.130;2023-01-01T17:14:28;34.00;;;19.15;;
77123;SDS011;66079;47.646;19.130;2023-01-01T17:17:30;36.28;;;18.95;;
77123;SDS011;66079;47.646;19.130;2023-01-01T17:20:35;34.87;;;18.40;;
77123;SDS011;66079;47.646;19.130;2023-01-01T17:23:39;30.65;;;17.40;;
77123;SDS011;66079;47.646;19.130;2023-01-01T17:26:45;34.67;;;18.65;;
77123;SDS011;66079;47.646;19.130;2023-01-01T17:29:50;32.35;;;18.75;;
77123;SDS011;66079;47.646;19.130;2023-01-01T17:32:53;36.00;;;19.98;;
77123;SDS011;66079;47.646;19.130;2023-01-01T17:35:56;33.50;;;19.17;;
77123;SDS011;66079;47.646;19.130;2023-01-01T17:38:59;33.83;;;19.40;;
77123;SDS011;66079;47.646;19.130;2023-01-01T17:42:01;32.13;;;18.90;;
77123;SDS011;66079;47.646;19.130;2023-01-01T17:45:05;35.20;;;18.35;;
77123;SDS011;66079;47.646;19.130;2023-01-01T17:48:09;33.45;;;18.20;;
77123;SDS011;66079;47.646;19.130;2023-01-01T17:51:13;31.80;;;18.17;;
77123;SDS011;66079;47.646;19.130;2023-01-01T17:54:16;31.67;;;17.42;;
77123;SDS011;66079;47.646;19.130;2023-01-01T17:57:19;32.60;;;18.25;;
77123;SDS011;66079;47.646;19.130;2023-01-01T18:00:23;31.73;;;17.83;;
77123;SDS011;66079;47.646;19.130;2023-01-01T18:03:28;30.38;;;17.98;;
77123;SDS011;66079;47.646;19.130;2023-01-01T18:06:31;35.37;;;19.13;;
77123;SDS011;66079;47.646;19.130;2023-01-01T18:09:42;34.83;;;19.63;;
77123;SDS011;66079;47.646;19.130;2023-01-01T18:12:45;33.65;;;18.75;;
77123;SDS011;66079;47.646;19.130;2023-01-01T18:15:47;36.47;;;20.25;;
77123;SDS011;66079;47.646;19.130;2023-01-01T18:18:50;31.65;;;18.70;;
77123;SDS011;66079;47.646;19.130;2023-01-01T18:21:53;31.87;;;18.53;;
77123;SDS011;66079;47.646;19.130;2023-01-01T18:24:56;30.38;;;18.08;;
77123;SDS011;66079;47.646;19.130;2023-01-01T18:27:58;35.85;;;19.65;;
77123;SDS011;66079;47.646;19.130;2023-01-01T18:34:09;35.15;;;19.63;;
77123;SDS011;66079;47.646;19.130;2023-01-01T18:37:12;32.67;;;18.83;;
77123;SDS011;66079;47.646;19.130;2023-01-01T18:40:18;32.35;;;18.67;;
77123;SDS011;66079;47.646;19.130;2023-01-01T18:43:23;32.38;;;18.58;;
77123;SDS011;66079;47.646;19.130;2023-01-01T18:46:28;32.17;;;18.42;;
77123;SDS011;66079;47.646;19.130;2023-01-01T18:49:31;30.23;;;17.73;;
77123;SDS011;66079;47.646;19.130;2023-01-01T18:52:36;31.53;;;17.87;;
77123;SDS011;66079;47.646;19.130;2023-01-01T18:55:39;32.00;;;18.45;;
77123;SDS011;66079;47.646;19.130;2023-01-01T18:58:42;35.42;;;19.52;;
77123;SDS011;66079;47.646;19.130;2023-01-01T19:01:45;34.05;;;18.73;;
77123;SDS011;66079;47.646;19.130;2023-01-01T19:04:48;35.28;;;20.85;;
77123;SDS011;66079;47.646;19.130;2023-01-01T19:08:13;32.60;;;18.13;;
77123;SDS011;66079;47.646;19.130;2023-01-01T19:11:19;28.75;;;18.10;;
77123;SDS011;66079;47.646;19.130;2023-01-01T19:14:23;29.30;;;18.75;;
77123;SDS011;66079;47.646;19.130;2023-01-01T19:17:26;31.80;;;18.10;;
77123;SDS011;66079;47.646;19.130;2023-01-01T19:20:31;30.23;;;18.17;;
77123;SDS011;66079;47.646;19.130;2023-01-01T19:23:35;30.50;;;17.70;;
77123;SDS011;66079;47.646;19.130;2023-01-01T19:26:40;32.15;;;18.38;;
77123;SDS011;66079;47.646;19.130;2023-01-01T19:29:43;32.75;;;18.52;;